Due to severe server failure at the provider, not all demo sites are operational. Will take some days to rebuilt everything.

Demonstration site - Click on the  for more information

This is an optional block. Switch it on/off in your settings-file: $SITE['bannerTop'] = false; or $SITE['bannerBottom'] = false;

You can display ads, any other important text or photo’s using text / html or PHP code.

You can place one or more at the top and or bottom and it can all be different for content / size .



Visit our other weather sites:

Template documentation
and downloads

And another site



Nearby METAR Reports

   
EBAW - Antwerp
Updated: 13-08-2020 16:20
Partly Cloudy  
Partly Cloudy  
   Wind: West 9.3 km/h
Wind: West 9.3 km/h
Temperature: 32°C
Heat Index: 33°C
Dew Point: 18°C
Humidity: 43%
Barometer: 1010 hPa
Clouds: Partly Cloudy
Visibility: More than 10 km
Cloud details: Partly Cloudy 5000 ft
EBAW 131420Z 26005KT 150V310 9999 SCT050CB 32/18 Q1010 NOSIG
EBLG - Liège
Updated: 13-08-2020 16:20
Few Clouds  
Few Clouds  
   Wind: SSW 18.5 km/h
Wind: SSW 18.5 km/h
Temperature: 31°C
Heat Index: 31°C
Dew Point: 17°C
Humidity: 43%
Barometer: 1012 hPa
Clouds: Few Clouds
Visibility: More than 10 km
Cloud details: Few Clouds 4400 ft
EBLG 131420Z 21010KT 180V240 9999 FEW044CB 31/17 Q1012 TEMPO VRB22G38KT 2500 TSRAGR
EBCV - Mons/Bergen
Updated: 13-08-2020 16:25
Clear  
Clear  
   Wind: West 11.1 km/h
Wind: West 11.1 km/h
Temperature: 31°C
Heat Index: 32°C
Dew Point: 18°C
Humidity: 46%
Barometer: 1011 hPa
Clouds: Clear
Visibility: More than 10 km
Cloud details: Clear ft
EBCV 131425Z AUTO 26006KT 9999 NCD 31/18 Q1011 BLU
EHBK - Maastricht
Updated: 13-08-2020 16:25
Partly Cloudy  
Partly Cloudy  
   Wind: SSW 20.4 km/h
Wind: SSW 20.4 km/h
Temperature: 32°C
Heat Index: 33°C
Dew Point: 19°C
Humidity: 46%
Barometer: 1011 hPa
Clouds: Partly Cloudy
Visibility: More than 10 km
Cloud details: Partly Cloudy ft
EHBK 131425Z AUTO 20011KT 140V230 9999 NSC 32/19 Q1011 NOSIG
ELLX - Luxemburg
Updated: 13-08-2020 16:20
Clear  
Clear  
   Wind: WSW 16.7 km/h
Wind: WSW 16.7 km/h
Temperature: 28°C
Heat Index: 28°C
Dew Point: 14°C
Humidity: 42%
Barometer: 1015 hPa
Visibility: More than 10 km
Cloud details: Clear ft
ELLX 131420Z 24009KT 190V280 CAVOK 28/14 Q1015 NOSIG
EBOS - Oostende
Updated: 13-08-2020 16:20
Partly Cloudy  
Partly Cloudy  
   Wind: WNW 22.2 km/h
Wind: WNW 22.2 km/h
Temperature: 22°C
Dew Point: 19°C
Humidity: 83%
Barometer: 1012 hPa
Clouds: Partly Cloudy
Visibility: 7 km
Cloud details: Partly Cloudy ft
EBOS 131420Z 30012KT 7000 NSC 22/19 Q1012 NOSIG

Script developed by  Saratoga-weather.org Adapted for the template by  Weerstation Leuven

You find our weather info also at:

FRWN

Equipment we use:

Provider
Robohost

Robohost

This is an optional block. Switch it on/off in your settings-file: $SITE['bannerTop'] = false; or $SITE['bannerBottom'] = false;

You can display ads, any other important text or photo’s using text / html or PHP code.

You can place one or more at the top and or bottom and it can all be different for content / size .